• pl
  • eng

Awiacja
Kliknij na pogrubioną czerwoną nazwę, aby odkodować depeszę. 20:01 17.08.2019
  • WIND
  • SIGNIFICANT EURO
  • SIGNIFICANT
  • SIGMET
  • AIRMET
  • TAF FC
  • TAF FT
  • METAR GG30
  • METAR GG00


METAR EPBY 171800Z 13005KT CAVOK 23/09 Q1011 =

METAR EPGD 171800Z 17006KT CAVOK 21/10 Q1011 =

METAR EPKK 171800Z VRB01KT CAVOK 20/15 Q1015 =

METAR EPKT 171800Z 20005KT CAVOK 21/11 Q1015 =

METAR EPLB 171800Z VRB01KT CAVOK 21/15 Q1014 =

METAR EPLL 171800Z 20003KT CAVOK 22/10 Q1013 =

METAR EPMO 171800Z 17003KT 150V220 CAVOK 23/12 Q1013 =

METAR EPPO 171800Z 15007KT CAVOK 23/10 Q1011 =

METAR EPRA 171800Z NIL=

METAR EPRZ 171800Z 22003KT CAVOK 21/12 Q1015 =

METAR EPSC 171800Z 14009KT CAVOK 23/11 Q1008 =

METAR EPSY 171800Z VRB02KT CAVOK 19/14 Q1013=

METAR EPWA 171800Z 16003KT CAVOK 22/13 Q1013 NOSIG=

METAR EPWR 171800Z 19005KT CAVOK 23/10 Q1012 =

METAR EPZG 171800Z 18007KT CAVOK 24/10 Q1011 =
Awiacja.imgw.pl jest pogodowym serwisem informacyjnym
Instytutu Meteorologii i Gospodarki Wodnej Państwowego Instytutu Badawczego.
Copyright IMGW PIB 2009-2011© Wszelkie prawa zastrzeżone.